createdAt,value
2018-12-03T00:01:28.294Z,89.64
2018-12-03T00:04:04.891Z,89.97
2018-12-03T00:06:34.539Z,89.69
2018-12-03T00:09:04.501Z,89.65
2018-12-03T00:11:34.156Z,89.64
2018-12-03T00:14:03.938Z,89.69
2018-12-03T00:16:33.757Z,89.73
2018-12-03T00:19:03.676Z,89.73
2018-12-03T00:21:33.405Z,88.76
2018-12-03T00:24:02.979Z,89.08
2018-12-03T00:26:32.538Z,88.89
2018-12-03T00:29:02.265Z,89.03
2018-12-03T00:31:31.983Z,88.27
2018-12-03T00:34:01.716Z,88.00
2018-12-03T00:36:31.108Z,87.95
2018-12-03T00:39:00.831Z,87.82
2018-12-03T00:41:30.648Z,87.32
2018-12-03T00:44:00.104Z,88.18
2018-12-03T00:46:29.892Z,87.89
2018-12-03T00:48:59.524Z,87.96
2018-12-03T00:51:29.008Z,88.41
2018-12-03T00:53:58.564Z,88.92
2018-12-03T00:56:28.146Z,88.98
2018-12-03T00:58:57.758Z,88.57
2018-12-03T01:01:31.244Z,87.94
2018-12-03T01:04:00.867Z,87.85
2018-12-03T01:06:30.241Z,87.54
2018-12-03T01:08:59.597Z,87.97
2018-12-03T01:11:29.423Z,88.69
2018-12-03T01:13:58.976Z,88.78
2018-12-03T01:16:28.792Z,87.80
2018-12-03T01:18:58.424Z,87.77
2018-12-03T01:21:28.063Z,88.18
2018-12-03T01:23:57.701Z,88.02
2018-12-03T01:26:27.542Z,88.07
2018-12-03T01:28:57.005Z,87.98
2018-12-03T01:31:26.325Z,87.58
2018-12-03T01:33:55.544Z,87.56
2018-12-03T01:36:24.940Z,87.07
2018-12-03T01:38:54.606Z,87.72
2018-12-03T01:41:24.310Z,87.46
2018-12-03T01:43:54.080Z,87.60
2018-12-03T01:46:23.575Z,87.17
2018-12-03T01:48:53.406Z,86.81
2018-12-03T01:51:23.202Z,86.07
2018-12-03T01:53:52.765Z,85.99
2018-12-03T01:56:22.288Z,86.76
2018-12-03T01:58:52.024Z,86.10
2018-12-03T02:01:21.490Z,85.95
2018-12-03T02:03:50.895Z,85.99
2018-12-03T02:06:20.178Z,85.64
2018-12-03T02:08:49.789Z,85.82
2018-12-03T02:11:19.354Z,85.79
2018-12-03T02:13:49.067Z,85.24
2018-12-03T02:16:18.601Z,85.77
2018-12-03T02:18:48.216Z,85.94
2018-12-03T02:21:17.949Z,85.88
2018-12-03T02:23:47.552Z,86.39
2018-12-03T02:26:17.519Z,87.26
2018-12-03T02:28:47.076Z,87.37
2018-12-03T02:31:16.429Z,87.35
2018-12-03T02:33:45.705Z,87.75
2018-12-03T02:36:14.954Z,88.21
2018-12-03T02:38:44.592Z,87.92
2018-12-03T02:41:14.146Z,87.78
2018-12-03T02:43:43.761Z,86.95
2018-12-03T02:46:13.105Z,86.39
2018-12-03T02:48:42.709Z,86.44
2018-12-03T02:51:12.269Z,87.32
2018-12-03T02:53:42.033Z,87.78
2018-12-03T02:56:11.685Z,87.66
2018-12-03T02:58:41.569Z,87.44
2018-12-03T03:01:11.004Z,87.56
2018-12-03T03:03:40.277Z,87.63
2018-12-03T03:06:09.806Z,88.85
2018-12-03T03:08:39.482Z,88.89
2018-12-03T03:11:09.095Z,88.43
2018-12-03T03:13:39.245Z,88.10
2018-12-03T03:16:08.713Z,87.89
2018-12-03T03:18:38.117Z,88.24
2018-12-03T03:21:07.949Z,89.71
2018-12-03T03:23:37.416Z,89.54
2018-12-03T03:26:07.199Z,89.17
2018-12-03T03:28:36.961Z,89.00
2018-12-03T03:31:06.558Z,89.15
2018-12-03T03:33:35.927Z,88.91
2018-12-03T03:36:05.368Z,88.04
2018-12-03T03:38:35.608Z,86.45
2018-12-03T03:41:05.010Z,85.19
2018-12-03T03:43:34.623Z,85.08
2018-12-03T03:46:04.655Z,85.82
2018-12-03T03:48:34.444Z,85.15
2018-12-03T03:51:03.848Z,84.14
2018-12-03T04:44:07.020Z,84.65
2018-12-03T04:46:36.409Z,84.48
2018-12-03T04:49:06.086Z,84.27
2018-12-03T04:51:35.441Z,84.40
2018-12-03T04:54:04.926Z,84.27
2018-12-03T04:56:34.332Z,84.09
2018-12-03T04:59:03.683Z,83.61
2018-12-03T05:01:33.145Z,83.45
2018-12-03T05:04:02.501Z,83.82
2018-12-03T05:06:31.903Z,85.61
2018-12-03T05:09:01.258Z,85.05
2018-12-03T05:11:30.643Z,83.92
2018-12-03T05:13:59.991Z,84.34
2018-12-03T05:16:29.323Z,84.36
2018-12-03T05:18:59.157Z,84.15
2018-12-03T05:21:28.633Z,83.72
2018-12-03T05:23:58.081Z,83.64
2018-12-03T05:26:27.384Z,84.09
2018-12-03T05:28:56.721Z,84.92
2018-12-03T05:31:26.165Z,84.94
2018-12-03T05:33:55.580Z,84.64
2018-12-03T05:36:24.980Z,84.37
2018-12-03T05:38:54.410Z,83.88
2018-12-03T05:41:23.824Z,83.52
2018-12-03T05:43:53.256Z,83.74
2018-12-03T05:46:22.653Z,84.10
2018-12-03T05:48:51.992Z,86.03
2018-12-03T05:51:21.364Z,85.60
2018-12-03T05:53:50.680Z,85.58
2018-12-03T05:56:20.017Z,86.15
2018-12-03T05:58:49.704Z,86.20
2018-12-03T06:01:19.118Z,85.40
2018-12-03T06:03:48.506Z,86.88
2018-12-03T06:06:18.011Z,87.16
2018-12-03T06:08:47.463Z,88.28
2018-12-03T06:11:16.969Z,88.10
2018-12-03T06:13:46.310Z,87.08
2018-12-03T06:16:15.904Z,86.70
2018-12-03T06:18:45.344Z,87.20
2018-12-03T06:21:14.807Z,87.47
2018-12-03T06:23:44.198Z,87.14
2018-12-03T06:26:13.572Z,87.72
2018-12-03T06:28:42.927Z,87.65
2018-12-03T06:31:12.231Z,86.17
2018-12-03T06:33:41.603Z,86.16
2018-12-03T06:36:10.918Z,86.58
2018-12-03T06:38:40.459Z,85.71
2018-12-03T06:41:09.773Z,84.81
2018-12-03T06:43:39.153Z,83.91
2018-12-03T06:46:08.556Z,83.81
2018-12-03T06:48:37.888Z,84.08
2018-12-03T06:51:07.306Z,84.11
2018-12-03T06:53:36.750Z,84.08
2018-12-03T06:56:06.257Z,84.07
2018-12-03T06:58:35.609Z,84.01
2018-12-03T07:01:05.182Z,84.11
2018-12-03T07:03:34.551Z,84.16
2018-12-03T07:06:03.978Z,84.38
2018-12-03T07:08:33.255Z,84.48
2018-12-03T07:11:02.555Z,84.61
2018-12-03T07:13:31.800Z,84.19
2018-12-03T07:16:01.076Z,84.41
2018-12-03T07:18:30.480Z,83.49
2018-12-03T07:20:59.829Z,85.22
2018-12-03T07:23:29.233Z,85.53
2018-12-03T07:26:30.858Z,84.96
2018-12-03T07:29:00.572Z,85.33
2018-12-03T07:31:30.033Z,85.45
2018-12-03T07:34:03.331Z,83.75
2018-12-03T07:36:32.043Z,83.19
2018-12-03T07:39:01.424Z,83.05
2018-12-03T07:41:31.974Z,81.53
2018-12-03T07:44:01.453Z,81.07
2018-12-03T07:46:30.914Z,81.01
2018-12-03T07:49:00.363Z,81.18
2018-12-03T07:51:29.998Z,81.23
2018-12-03T07:53:59.576Z,81.27
2018-12-03T07:56:28.981Z,81.12
2018-12-03T07:58:58.596Z,80.84
2018-12-03T08:01:28.165Z,80.77
2018-12-03T08:03:57.674Z,80.40
2018-12-03T08:06:27.138Z,80.29
2018-12-03T08:08:56.448Z,80.34
2018-12-03T08:11:26.086Z,81.03
2018-12-03T08:13:55.322Z,83.08
2018-12-03T08:16:24.897Z,83.03
2018-12-03T08:18:54.112Z,82.47
2018-12-03T08:21:23.818Z,82.63
2018-12-03T08:23:58.117Z,80.55
2018-12-03T08:26:27.334Z,80.40
2018-12-03T08:28:56.846Z,80.88
2018-12-03T08:31:26.845Z,79.64
2018-12-03T08:33:56.138Z,79.99
2018-12-03T08:36:25.744Z,79.30
2018-12-03T08:38:55.232Z,80.19
2018-12-03T08:41:24.487Z,81.01
2018-12-03T08:43:54.133Z,79.04
2018-12-03T08:46:23.667Z,78.74
2018-12-03T08:48:52.964Z,79.19
2018-12-03T08:51:22.240Z,79.83
2018-12-03T08:53:51.585Z,79.89
2018-12-03T08:56:20.847Z,79.69
2018-12-03T08:58:50.104Z,79.26
2018-12-03T09:01:21.307Z,79.79
2018-12-03T09:03:54.885Z,82.15
2018-12-03T09:06:24.368Z,82.08
2018-12-03T09:08:53.958Z,81.42
2018-12-03T09:11:24.152Z,80.77
2018-12-03T09:13:53.970Z,82.61
2018-12-03T09:16:23.252Z,81.57
2018-12-03T09:18:52.736Z,81.52
2018-12-03T09:21:22.064Z,81.03
2018-12-03T09:23:54.243Z,80.40
2018-12-03T09:26:23.551Z,79.87
2018-12-03T09:28:52.830Z,78.37
2018-12-03T09:31:23.753Z,77.87
2018-12-03T09:33:57.557Z,77.60
2018-12-03T09:36:27.780Z,77.94
2018-12-03T09:39:05.839Z,76.38
2018-12-03T09:41:35.188Z,77.13
2018-12-03T09:44:04.607Z,77.26
2018-12-03T09:46:33.971Z,77.18
2018-12-03T09:49:03.349Z,77.10
2018-12-03T09:51:34.910Z,77.38
2018-12-03T09:54:06.706Z,75.67
2018-12-03T09:56:49.265Z,75.44
2018-12-03T09:59:20.137Z,73.63
2018-12-03T10:01:51.007Z,73.53
2018-12-03T10:04:25.529Z,74.33
2018-12-03T10:06:54.881Z,74.70
2018-12-03T10:09:24.260Z,74.55
2018-12-03T10:11:58.317Z,74.15
2018-12-03T10:14:27.616Z,74.65
2018-12-03T10:16:56.854Z,74.98
2018-12-03T10:19:27.171Z,75.62
2018-12-03T10:21:56.629Z,74.78
2018-12-03T10:24:26.169Z,75.00
2018-12-03T10:26:55.481Z,73.78
2018-12-03T10:29:24.761Z,73.44
2018-12-03T10:31:54.193Z,72.75
2018-12-03T10:34:23.639Z,73.68
2018-12-03T10:36:57.828Z,73.99
2018-12-03T10:39:30.995Z,73.98
2018-12-03T10:42:03.042Z,74.81
2018-12-03T10:44:33.283Z,74.62
2018-12-03T10:47:02.650Z,73.79
2018-12-03T10:49:32.097Z,73.21
2018-12-03T10:52:01.429Z,72.96
2018-12-03T10:54:36.905Z,72.68
2018-12-03T10:57:08.131Z,72.34
2018-12-03T10:59:37.743Z,72.76
2018-12-03T11:02:12.934Z,72.29
2018-12-03T11:04:43.707Z,74.04
2018-12-03T11:07:14.342Z,72.72
2018-12-03T11:09:43.808Z,72.65
2018-12-03T11:12:13.115Z,72.73
2018-12-03T11:14:42.498Z,72.24
2018-12-03T11:17:12.015Z,71.34
2018-12-03T11:19:46.859Z,70.45
2018-12-03T11:22:21.920Z,69.66
2018-12-03T11:24:51.442Z,69.11
2018-12-03T11:27:21.856Z,67.78
2018-12-03T11:29:51.405Z,66.81
2018-12-03T11:32:21.761Z,66.22
2018-12-03T11:34:51.008Z,66.28
2018-12-03T11:37:21.316Z,64.83
2018-12-03T11:39:56.363Z,63.15
2018-12-03T11:42:29.335Z,62.74
2018-12-03T11:44:58.601Z,63.04
2018-12-03T11:47:27.872Z,60.15
2018-12-03T11:49:57.198Z,62.97
2018-12-03T11:52:26.502Z,63.47
2018-12-03T11:54:55.822Z,60.32
2018-12-03T11:57:25.114Z,59.52
2018-12-03T11:59:54.389Z,59.68
2018-12-03T12:02:23.712Z,58.29
2018-12-03T12:04:53.045Z,58.81
2018-12-03T12:07:22.361Z,58.84
2018-12-03T12:09:51.621Z,60.06
2018-12-03T12:12:22.844Z,63.98
2018-12-03T12:14:52.131Z,62.82
2018-12-03T12:17:21.460Z,65.53
2018-12-03T12:19:50.724Z,61.38
2018-12-03T12:22:20.060Z,63.11
2018-12-03T12:24:49.364Z,64.72
2018-12-03T12:27:18.973Z,58.91
2018-12-03T12:29:48.452Z,60.86
2018-12-03T12:32:17.959Z,61.17
2018-12-03T12:34:47.173Z,58.04
2018-12-03T12:37:16.522Z,56.63
2018-12-03T12:39:45.859Z,57.26
2018-12-03T12:42:15.206Z,58.54
2018-12-03T12:44:44.486Z,56.90
2018-12-03T12:47:13.757Z,55.58
2018-12-03T12:49:43.117Z,58.99
2018-12-03T12:52:12.525Z,60.01
2018-12-03T12:54:41.898Z,59.81
2018-12-03T12:57:11.095Z,55.18
2018-12-03T12:59:40.585Z,57.09
2018-12-03T13:02:11.025Z,59.15
2018-12-03T13:04:40.332Z,58.96
2018-12-03T13:07:09.576Z,63.06
2018-12-03T13:09:38.835Z,66.45
2018-12-03T13:12:08.884Z,65.02
2018-12-03T13:14:38.176Z,61.62
2018-12-03T13:17:08.080Z,63.06
2018-12-03T13:22:36.521Z,63.47
2018-12-03T13:25:10.082Z,63.18
2018-12-03T13:27:39.672Z,62.22
2018-12-03T13:30:13.681Z,64.14
2018-12-03T13:32:47.376Z,65.28
2018-12-03T13:35:16.824Z,64.71
2018-12-03T13:37:46.533Z,65.11
2018-12-03T13:40:17.901Z,63.26
2018-12-03T13:42:47.897Z,63.92
2018-12-03T13:45:22.045Z,64.09
2018-12-03T13:47:53.725Z,61.24
2018-12-03T13:50:23.186Z,61.92
2018-12-03T13:52:52.493Z,62.00
2018-12-03T13:55:22.094Z,64.23
2018-12-03T13:57:51.957Z,62.56
2018-12-03T14:00:24.892Z,62.20
2018-12-03T14:03:06.937Z,61.93
2018-12-03T14:05:42.209Z,63.10
2018-12-03T14:09:26.162Z,63.71
2018-12-03T14:12:00.905Z,65.92
2018-12-03T14:16:10.459Z,63.67
2018-12-03T14:18:47.158Z,64.39
2018-12-03T14:21:20.981Z,64.42
2018-12-03T14:23:53.132Z,65.14
2018-12-03T14:26:22.760Z,67.10
2018-12-03T14:28:52.287Z,68.20
2018-12-03T14:31:21.647Z,68.82
2018-12-03T14:33:51.210Z,68.62
2018-12-03T14:36:20.749Z,67.53
2018-12-03T14:38:50.140Z,68.07
2018-12-03T14:41:19.571Z,68.56
2018-12-03T14:43:50.049Z,68.42
2018-12-03T14:46:19.259Z,68.97
2018-12-03T14:48:48.953Z,69.54
2018-12-03T14:51:18.247Z,69.71
2018-12-03T14:53:47.894Z,70.26
2018-12-03T14:56:17.575Z,71.81
2018-12-03T14:58:46.992Z,71.67
2018-12-03T15:01:16.473Z,72.67
2018-12-03T15:03:45.928Z,73.46
2018-12-03T15:06:15.397Z,74.10
2018-12-03T15:08:44.835Z,74.26
2018-12-03T15:11:14.257Z,74.95
2018-12-03T15:13:43.677Z,75.37
2018-12-03T15:16:12.937Z,75.77
2018-12-03T15:18:42.261Z,76.31
2018-12-03T15:21:11.768Z,76.91
2018-12-03T15:23:41.401Z,76.59
2018-12-03T15:26:11.033Z,76.70
2018-12-03T15:28:40.639Z,76.52
2018-12-03T15:31:10.080Z,77.37
2018-12-03T15:33:39.534Z,77.75
2018-12-03T15:36:08.983Z,77.88
2018-12-03T15:38:38.412Z,77.20
2018-12-03T15:41:07.973Z,77.44
2018-12-03T15:43:38.611Z,77.55
2018-12-03T15:46:08.000Z,78.01
2018-12-03T15:48:37.287Z,77.66
2018-12-03T15:51:06.775Z,77.76
2018-12-03T15:53:36.044Z,78.25
2018-12-03T15:56:05.407Z,78.38
2018-12-03T15:58:34.766Z,78.95
2018-12-03T16:01:04.405Z,79.26
2018-12-03T16:03:33.912Z,79.64
2018-12-03T16:06:03.456Z,80.75
2018-12-03T16:08:33.102Z,81.07
2018-12-03T16:11:02.713Z,80.68
2018-12-03T16:13:33.254Z,81.26
2018-12-03T16:16:02.761Z,81.80
2018-12-03T16:18:32.235Z,82.04
2018-12-03T16:21:01.972Z,81.73
2018-12-03T16:23:31.277Z,82.07
2018-12-03T16:26:00.770Z,82.67
2018-12-03T16:28:30.373Z,83.29
2018-12-03T16:30:59.890Z,83.28
2018-12-03T16:33:29.490Z,83.21
2018-12-03T16:35:59.036Z,83.61
2018-12-03T16:38:28.655Z,83.56
2018-12-03T16:40:58.372Z,83.79
2018-12-03T16:43:27.785Z,83.76
2018-12-03T16:45:57.297Z,83.96
2018-12-03T16:48:26.675Z,83.82
2018-12-03T16:50:56.171Z,83.93
2018-12-03T16:53:25.888Z,84.17
2018-12-03T16:55:55.230Z,83.94
2018-12-03T16:58:24.751Z,84.16
2018-12-03T17:00:54.263Z,84.04
2018-12-03T17:03:23.536Z,83.97
2018-12-03T17:05:53.068Z,82.96
2018-12-03T17:08:22.515Z,83.09
2018-12-03T17:10:52.179Z,83.28
2018-12-03T17:13:21.787Z,82.45
2018-12-03T17:15:51.300Z,82.39
2018-12-03T17:18:22.835Z,82.82
2018-12-03T17:21:12.649Z,83.43
2018-12-03T17:23:53.687Z,83.15
2018-12-03T17:26:23.241Z,83.35
2018-12-03T17:28:52.721Z,83.40
2018-12-03T17:31:22.235Z,83.23
2018-12-03T17:33:51.756Z,83.27
2018-12-03T17:36:21.338Z,82.88
2018-12-03T17:38:50.646Z,82.39
2018-12-03T17:41:20.376Z,82.45
2018-12-03T17:43:49.927Z,82.30
2018-12-03T17:46:19.314Z,82.37
2018-12-03T17:48:48.560Z,82.46
2018-12-03T17:51:17.941Z,82.11
2018-12-03T17:53:47.659Z,81.43
2018-12-03T17:56:17.092Z,81.65
2018-12-03T17:58:46.558Z,81.48
2018-12-03T18:01:15.911Z,81.60
2018-12-03T18:03:45.569Z,81.76
2018-12-03T18:06:17.122Z,81.71
2018-12-03T18:08:46.524Z,82.15
2018-12-03T18:11:15.866Z,82.04
2018-12-03T18:13:45.452Z,82.59
2018-12-03T18:16:14.783Z,82.62
2018-12-03T18:18:44.017Z,82.57
2018-12-03T18:21:13.729Z,82.40
2018-12-03T18:23:43.590Z,82.20
2018-12-03T18:26:13.254Z,82.66
2018-12-03T18:28:42.948Z,81.88
2018-12-03T18:31:12.900Z,81.73
2018-12-03T18:33:42.388Z,81.28
2018-12-03T18:36:12.244Z,81.38
2018-12-03T18:38:41.613Z,81.75
2018-12-03T18:41:11.105Z,81.38
2018-12-03T18:43:40.486Z,81.16
2018-12-03T18:46:09.745Z,81.33
2018-12-03T18:48:39.470Z,81.93
2018-12-03T18:51:08.869Z,82.01
2018-12-03T18:53:38.424Z,82.47
2018-12-03T18:56:07.873Z,84.67
2018-12-03T18:58:42.346Z,85.72
2018-12-03T19:01:11.802Z,85.68
2018-12-03T19:03:41.477Z,86.16
2018-12-03T19:06:11.268Z,86.59
2018-12-03T19:08:40.625Z,87.00
2018-12-03T19:11:09.964Z,87.15
2018-12-03T19:13:39.381Z,86.35
2018-12-03T19:16:08.970Z,86.67
2018-12-03T19:18:38.540Z,88.83
2018-12-03T19:21:08.250Z,88.33
2018-12-03T19:23:37.861Z,87.10
2018-12-03T19:26:07.455Z,88.23
2018-12-03T19:28:37.148Z,88.60
2018-12-03T19:31:06.729Z,87.64
2018-12-03T19:33:38.341Z,87.78
2018-12-03T19:36:28.745Z,88.14
2018-12-03T19:38:58.080Z,89.80
2018-12-03T19:41:27.569Z,90.63
2018-12-03T19:43:57.074Z,90.69
2018-12-03T19:46:26.328Z,89.61
2018-12-03T19:48:56.164Z,89.23
2018-12-03T19:51:25.459Z,89.12
2018-12-03T19:53:56.638Z,88.47
2018-12-03T19:56:26.271Z,88.92
2018-12-03T19:58:56.457Z,88.39
2018-12-03T20:01:25.677Z,88.13
2018-12-03T20:03:55.113Z,87.29
2018-12-03T20:06:24.660Z,87.14
2018-12-03T20:08:54.163Z,86.94
2018-12-03T20:11:23.760Z,86.61
2018-12-03T20:13:53.151Z,86.79
2018-12-03T20:16:22.631Z,86.83
2018-12-03T20:18:52.000Z,86.84
2018-12-03T20:21:24.096Z,87.73
2018-12-03T20:23:56.313Z,88.02
2018-12-03T20:26:31.149Z,87.25
2018-12-03T20:31:25.307Z,87.03
2018-12-03T20:34:28.198Z,86.70
2018-12-03T20:37:07.467Z,86.63
2018-12-03T20:39:48.770Z,86.63
2018-12-03T20:42:18.112Z,86.97
2018-12-03T20:44:56.871Z,86.57
2018-12-03T20:47:30.869Z,86.91
2018-12-03T20:50:22.034Z,85.86
2018-12-03T20:52:51.741Z,85.25
2018-12-03T20:55:26.563Z,85.43
2018-12-03T20:57:55.839Z,84.89
2018-12-03T21:00:25.561Z,84.71
2018-12-03T21:02:58.233Z,84.80
2018-12-03T21:05:27.534Z,84.21
2018-12-03T21:07:57.096Z,84.82
2018-12-03T21:10:26.604Z,85.55
2018-12-03T21:12:56.096Z,86.47
2018-12-03T21:15:25.745Z,86.56
2018-12-03T21:17:56.094Z,86.76
2018-12-03T21:20:29.312Z,86.82
2018-12-03T21:22:58.844Z,87.62
2018-12-03T21:25:28.100Z,87.48
2018-12-03T21:27:57.392Z,89.23
2018-12-03T21:30:26.844Z,90.01
2018-12-03T21:32:56.314Z,90.06
2018-12-03T21:35:25.606Z,90.18
2018-12-03T21:37:55.643Z,90.39
2018-12-03T21:40:25.030Z,90.89
2018-12-03T21:42:55.082Z,90.80
2018-12-03T21:45:24.706Z,90.55
2018-12-03T21:47:54.157Z,90.01
2018-12-03T21:50:23.712Z,88.72
2018-12-03T21:52:53.336Z,89.13
2018-12-03T21:55:23.044Z,88.96
2018-12-03T21:57:53.924Z,88.29
2018-12-03T22:00:23.770Z,88.12
2018-12-03T22:02:53.426Z,87.69
2018-12-03T22:05:23.152Z,87.71
2018-12-03T22:07:52.451Z,88.16
2018-12-03T22:10:22.029Z,87.57
2018-12-03T22:12:51.272Z,86.82
2018-12-03T22:15:20.596Z,86.06
2018-12-03T22:17:50.213Z,85.02
2018-12-03T22:20:19.495Z,85.44
2018-12-03T22:22:48.912Z,85.80
2018-12-03T22:25:18.179Z,85.32
2018-12-03T22:27:48.540Z,83.70
2018-12-03T22:30:18.012Z,83.34
2018-12-03T22:32:47.557Z,83.87
2018-12-03T22:35:16.839Z,83.52
2018-12-03T22:37:46.285Z,83.84
2018-12-03T22:40:17.380Z,84.04
2018-12-03T22:42:46.949Z,83.77
2018-12-03T22:45:16.432Z,83.28
2018-12-03T22:47:45.891Z,84.54
2018-12-03T22:50:15.454Z,86.83
2018-12-03T22:52:44.807Z,86.88
2018-12-03T22:55:14.333Z,88.19
2018-12-03T22:57:43.803Z,88.53
2018-12-03T23:00:20.948Z,89.86
2018-12-03T23:02:52.316Z,89.54
2018-12-03T23:05:22.059Z,88.59
2018-12-03T23:07:51.600Z,87.57
2018-12-03T23:10:21.334Z,87.44
2018-12-03T23:12:50.690Z,86.92
2018-12-03T23:15:20.268Z,87.32
2018-12-03T23:17:49.644Z,87.15
2018-12-03T23:20:19.210Z,87.70
2018-12-03T23:22:48.790Z,87.43
2018-12-03T23:25:18.471Z,88.15
2018-12-03T23:27:48.170Z,88.17
2018-12-03T23:30:17.645Z,88.19
2018-12-03T23:32:47.127Z,88.43
2018-12-03T23:35:16.770Z,87.70
2018-12-03T23:37:46.342Z,86.87
2018-12-03T23:40:16.125Z,86.62
2018-12-03T23:42:45.432Z,86.22
2018-12-03T23:45:14.781Z,86.12
2018-12-03T23:47:44.503Z,86.25
2018-12-03T23:50:14.084Z,86.19
2018-12-03T23:52:43.535Z,86.01
2018-12-03T23:55:13.558Z,86.12
2018-12-03T23:57:42.881Z,85.92
